sensor_id;sensor_type;location;lat;lon;timestamp;pressure;altitude;pressure_sealevel;temperature;humidity
59110;BME280;44895;47.438;18.978;2023-01-19T00:00:32;98433.38;;;5.01;100.00
59110;BME280;44895;47.438;18.978;2023-01-19T00:03:36;98436.75;;;5.06;100.00
59110;BME280;44895;47.438;18.978;2023-01-19T00:06:40;98442.53;;;5.00;100.00
59110;BME280;44895;47.438;18.978;2023-01-19T00:09:44;98432.81;;;4.85;100.00
59110;BME280;44895;47.438;18.978;2023-01-19T00:12:48;98438.09;;;4.76;100.00
59110;BME280;44895;47.438;18.978;2023-01-19T00:15:52;98434.47;;;5.00;100.00
59110;BME280;44895;47.438;18.978;2023-01-19T00:18:56;98433.56;;;5.04;100.00
59110;BME280;44895;47.438;18.978;2023-01-19T00:21:59;98430.47;;;4.97;100.00
59110;BME280;44895;47.438;18.978;2023-01-19T00:25:03;98430.72;;;4.68;100.00
59110;BME280;44895;47.438;18.978;2023-01-19T00:28:08;98425.19;;;4.92;100.00
59110;BME280;44895;47.438;18.978;2023-01-19T00:31:13;98424.13;;;5.07;100.00
59110;BME280;44895;47.438;18.978;2023-01-19T00:34:16;98426.38;;;5.00;100.00
59110;BME280;44895;47.438;18.978;2023-01-19T00:37:20;98429.50;;;5.07;100.00
59110;BME280;44895;47.438;18.978;2023-01-19T00:40:23;98426.69;;;4.98;100.00
59110;BME280;44895;47.438;18.978;2023-01-19T00:43:27;98429.75;;;4.78;100.00
59110;BME280;44895;47.438;18.978;2023-01-19T00:46:31;98429.56;;;4.88;100.00
59110;BME280;44895;47.438;18.978;2023-01-19T00:49:35;98425.28;;;4.87;100.00
59110;BME280;44895;47.438;18.978;2023-01-19T00:52:39;98415.03;;;4.89;100.00
59110;BME280;44895;47.438;18.978;2023-01-19T00:55:44;98422.38;;;4.83;100.00
59110;BME280;44895;47.438;18.978;2023-01-19T00:58:48;98422.78;;;4.90;100.00
59110;BME280;44895;47.438;18.978;2023-01-19T01:01:51;98417.59;;;4.80;100.00
59110;BME280;44895;47.438;18.978;2023-01-19T01:04:55;98417.19;;;4.87;100.00
59110;BME280;44895;47.438;18.978;2023-01-19T01:07:59;98420.78;;;4.82;100.00
59110;BME280;44895;47.438;18.978;2023-01-19T01:11:03;98422.47;;;4.78;100.00
59110;BME280;44895;47.438;18.978;2023-01-19T01:14:09;98424.63;;;4.76;100.00
59110;BME280;44895;47.438;18.978;2023-01-19T01:17:12;98427.03;;;4.64;100.00
59110;BME280;44895;47.438;18.978;2023-01-19T01:20:22;98435.13;;;4.78;100.00
59110;BME280;44895;47.438;18.978;2023-01-19T01:23:26;98433.13;;;4.83;100.00
59110;BME280;44895;47.438;18.978;2023-01-19T01:26:30;98429.41;;;4.65;100.00
59110;BME280;44895;47.438;18.978;2023-01-19T01:29:33;98433.72;;;4.47;100.00
59110;BME280;44895;47.438;18.978;2023-01-19T01:32:39;98433.06;;;4.55;100.00
59110;BME280;44895;47.438;18.978;2023-01-19T01:35:42;98425.78;;;4.56;100.00
59110;BME280;44895;47.438;18.978;2023-01-19T01:38:46;98426.41;;;4.34;100.00
59110;BME280;44895;47.438;18.978;2023-01-19T01:41:50;98432.06;;;4.51;100.00
59110;BME280;44895;47.438;18.978;2023-01-19T01:44:55;98433.84;;;4.56;100.00
59110;BME280;44895;47.438;18.978;2023-01-19T01:51:18;98443.19;;;4.45;100.00
59110;BME280;44895;47.438;18.978;2023-01-19T01:54:29;98447.72;;;4.63;100.00
59110;BME280;44895;47.438;18.978;2023-01-19T01:57:36;98455.75;;;4.30;100.00
59110;BME280;44895;47.438;18.978;2023-01-19T02:00:41;98465.69;;;4.49;100.00
59110;BME280;44895;47.438;18.978;2023-01-19T02:04:02;98470.56;;;4.47;100.00
59110;BME280;44895;47.438;18.978;2023-01-19T02:07:06;98479.22;;;4.44;100.00
59110;BME280;44895;47.438;18.978;2023-01-19T02:10:29;98479.63;;;4.51;100.00
59110;BME280;44895;47.438;18.978;2023-01-19T02:13:52;98444.75;;;4.46;100.00
59110;BME280;44895;47.438;18.978;2023-01-19T02:16:55;98415.44;;;4.30;100.00
59110;BME280;44895;47.438;18.978;2023-01-19T02:19:59;98406.72;;;4.38;100.00
59110;BME280;44895;47.438;18.978;2023-01-19T02:23:07;98433.38;;;4.35;100.00
59110;BME280;44895;47.438;18.978;2023-01-19T02:26:18;98449.59;;;4.30;100.00
59110;BME280;44895;47.438;18.978;2023-01-19T02:29:24;98477.31;;;4.44;100.00
59110;BME280;44895;47.438;18.978;2023-01-19T02:32:28;98477.94;;;4.22;100.00
59110;BME280;44895;47.438;18.978;2023-01-19T02:35:33;98456.63;;;4.45;100.00
59110;BME280;44895;47.438;18.978;2023-01-19T02:38:39;98443.97;;;4.45;100.00
59110;BME280;44895;47.438;18.978;2023-01-19T02:41:54;98439.31;;;4.32;100.00
59110;BME280;44895;47.438;18.978;2023-01-19T02:45:04;98433.00;;;4.41;100.00
59110;BME280;44895;47.438;18.978;2023-01-19T02:48:09;98411.38;;;4.14;100.00
59110;BME280;44895;47.438;18.978;2023-01-19T02:51:17;98416.59;;;4.24;100.00
59110;BME280;44895;47.438;18.978;2023-01-19T02:54:59;98431.72;;;4.20;100.00
59110;BME280;44895;47.438;18.978;2023-01-19T02:58:25;98437.47;;;4.13;100.00
59110;BME280;44895;47.438;18.978;2023-01-19T03:01:48;98443.19;;;4.06;100.00
59110;BME280;44895;47.438;18.978;2023-01-19T03:08:13;98441.53;;;4.30;100.00
59110;BME280;44895;47.438;18.978;2023-01-19T03:11:23;98447.91;;;4.15;100.00
59110;BME280;44895;47.438;18.978;2023-01-19T03:14:32;98465.34;;;4.17;100.00
59110;BME280;44895;47.438;18.978;2023-01-19T03:17:38;98470.56;;;4.08;100.00
59110;BME280;44895;47.438;18.978;2023-01-19T03:20:43;98472.09;;;4.15;100.00
59110;BME280;44895;47.438;18.978;2023-01-19T03:23:49;98472.25;;;4.23;100.00
59110;BME280;44895;47.438;18.978;2023-01-19T03:26:57;98448.13;;;3.99;100.00
59110;BME280;44895;47.438;18.978;2023-01-19T03:30:10;98423.81;;;4.10;100.00
59110;BME280;44895;47.438;18.978;2023-01-19T03:33:23;98401.16;;;4.16;100.00
59110;BME280;44895;47.438;18.978;2023-01-19T03:36:31;98385.31;;;4.14;100.00
59110;BME280;44895;47.438;18.978;2023-01-19T03:39:37;98388.88;;;3.90;100.00
59110;BME280;44895;47.438;18.978;2023-01-19T03:42:41;98394.75;;;3.92;100.00
59110;BME280;44895;47.438;18.978;2023-01-19T03:45:47;98390.34;;;4.02;100.00
59110;BME280;44895;47.438;18.978;2023-01-19T03:48:51;98397.88;;;3.81;100.00
59110;BME280;44895;47.438;18.978;2023-01-19T03:51:55;98404.03;;;3.62;100.00
59110;BME280;44895;47.438;18.978;2023-01-19T03:55:01;98393.66;;;3.94;100.00
59110;BME280;44895;47.438;18.978;2023-01-19T03:58:06;98403.63;;;4.12;100.00
59110;BME280;44895;47.438;18.978;2023-01-19T04:01:11;98441.38;;;4.02;100.00
59110;BME280;44895;47.438;18.978;2023-01-19T04:04:15;98456.03;;;3.90;100.00
59110;BME280;44895;47.438;18.978;2023-01-19T04:07:19;98435.31;;;3.72;100.00
59110;BME280;44895;47.438;18.978;2023-01-19T04:10:22;98454.50;;;3.84;100.00
59110;BME280;44895;47.438;18.978;2023-01-19T04:13:26;98468.75;;;3.61;100.00
59110;BME280;44895;47.438;18.978;2023-01-19T04:16:33;98462.19;;;3.91;100.00
59110;BME280;44895;47.438;18.978;2023-01-19T04:19:37;98456.03;;;3.90;100.00
59110;BME280;44895;47.438;18.978;2023-01-19T04:22:40;98445.22;;;3.77;100.00
59110;BME280;44895;47.438;18.978;2023-01-19T04:25:45;98447.16;;;3.90;100.00
59110;BME280;44895;47.438;18.978;2023-01-19T04:28:48;98437.09;;;3.82;100.00
59110;BME280;44895;47.438;18.978;2023-01-19T04:31:52;98420.91;;;4.06;100.00
59110;BME280;44895;47.438;18.978;2023-01-19T04:34:57;98434.78;;;3.94;100.00
59110;BME280;44895;47.438;18.978;2023-01-19T04:38:01;98435.84;;;3.93;100.00
59110;BME280;44895;47.438;18.978;2023-01-19T04:41:05;98417.22;;;4.02;100.00
59110;BME280;44895;47.438;18.978;2023-01-19T04:44:09;98411.84;;;3.83;100.00
59110;BME280;44895;47.438;18.978;2023-01-19T04:47:13;98396.94;;;4.10;100.00
59110;BME280;44895;47.438;18.978;2023-01-19T04:50:16;98414.28;;;4.17;100.00
59110;BME280;44895;47.438;18.978;2023-01-19T04:53:20;98434.34;;;4.06;100.00
59110;BME280;44895;47.438;18.978;2023-01-19T04:56:24;98445.44;;;3.99;100.00
59110;BME280;44895;47.438;18.978;2023-01-19T04:59:28;98456.88;;;3.67;100.00
59110;BME280;44895;47.438;18.978;2023-01-19T05:02:31;98455.59;;;3.83;100.00
59110;BME280;44895;47.438;18.978;2023-01-19T05:05:36;98458.44;;;3.92;100.00
59110;BME280;44895;47.438;18.978;2023-01-19T05:08:39;98448.91;;;3.81;100.00
59110;BME280;44895;47.438;18.978;2023-01-19T05:11:43;98436.06;;;3.78;100.00
59110;BME280;44895;47.438;18.978;2023-01-19T05:14:47;98430.09;;;3.81;100.00
59110;BME280;44895;47.438;18.978;2023-01-19T05:17:51;98475.56;;;3.53;100.00
59110;BME280;44895;47.438;18.978;2023-01-19T05:20:55;98483.50;;;3.63;100.00
59110;BME280;44895;47.438;18.978;2023-01-19T05:23:59;98489.19;;;3.81;100.00
59110;BME280;44895;47.438;18.978;2023-01-19T05:27:03;98482.97;;;3.85;100.00
59110;BME280;44895;47.438;18.978;2023-01-19T05:30:07;98495.22;;;3.72;100.00
59110;BME280;44895;47.438;18.978;2023-01-19T05:33:11;98501.03;;;3.80;100.00
59110;BME280;44895;47.438;18.978;2023-01-19T05:36:14;98506.69;;;3.78;100.00
59110;BME280;44895;47.438;18.978;2023-01-19T05:39:18;98497.44;;;3.65;100.00
59110;BME280;44895;47.438;18.978;2023-01-19T05:42:23;98494.69;;;3.70;100.00
59110;BME280;44895;47.438;18.978;2023-01-19T05:45:27;98490.81;;;3.82;100.00
59110;BME280;44895;47.438;18.978;2023-01-19T05:48:30;98482.50;;;3.78;100.00
59110;BME280;44895;47.438;18.978;2023-01-19T05:51:35;98484.66;;;4.00;100.00
59110;BME280;44895;47.438;18.978;2023-01-19T05:54:40;98486.63;;;3.70;100.00
59110;BME280;44895;47.438;18.978;2023-01-19T05:57:44;98460.81;;;3.94;100.00
59110;BME280;44895;47.438;18.978;2023-01-19T06:00:48;98462.03;;;3.82;100.00
59110;BME280;44895;47.438;18.978;2023-01-19T06:03:52;98462.41;;;3.75;100.00
59110;BME280;44895;47.438;18.978;2023-01-19T06:06:55;98479.38;;;3.71;100.00
59110;BME280;44895;47.438;18.978;2023-01-19T06:09:59;98467.09;;;3.40;100.00
59110;BME280;44895;47.438;18.978;2023-01-19T06:13:03;98449.69;;;3.38;100.00
59110;BME280;44895;47.438;18.978;2023-01-19T06:16:07;98448.47;;;3.49;100.00
59110;BME280;44895;47.438;18.978;2023-01-19T06:19:11;98445.56;;;3.46;100.00
59110;BME280;44895;47.438;18.978;2023-01-19T06:22:15;98444.19;;;3.48;100.00
59110;BME280;44895;47.438;18.978;2023-01-19T06:25:18;98424.97;;;3.41;100.00
59110;BME280;44895;47.438;18.978;2023-01-19T06:28:22;98435.75;;;3.36;100.00
59110;BME280;44895;47.438;18.978;2023-01-19T06:31:26;98451.81;;;3.41;100.00
59110;BME280;44895;47.438;18.978;2023-01-19T06:34:30;98467.84;;;3.46;100.00
59110;BME280;44895;47.438;18.978;2023-01-19T06:37:35;98487.59;;;3.31;100.00
59110;BME280;44895;47.438;18.978;2023-01-19T06:40:39;98500.31;;;3.50;100.00
59110;BME280;44895;47.438;18.978;2023-01-19T06:43:43;98496.97;;;3.58;100.00
59110;BME280;44895;47.438;18.978;2023-01-19T06:46:47;98506.47;;;3.50;100.00
59110;BME280;44895;47.438;18.978;2023-01-19T06:49:51;98492.56;;;3.67;100.00
59110;BME280;44895;47.438;18.978;2023-01-19T06:52:55;98494.13;;;3.49;100.00
59110;BME280;44895;47.438;18.978;2023-01-19T06:56:02;98481.16;;;3.56;100.00
59110;BME280;44895;47.438;18.978;2023-01-19T06:59:06;98484.75;;;3.47;100.00
59110;BME280;44895;47.438;18.978;2023-01-19T07:02:09;98473.47;;;3.50;100.00
59110;BME280;44895;47.438;18.978;2023-01-19T07:05:22;98468.97;;;3.64;100.00
59110;BME280;44895;47.438;18.978;2023-01-19T07:08:25;98465.47;;;3.45;100.00
59110;BME280;44895;47.438;18.978;2023-01-19T07:11:29;98453.16;;;3.63;100.00
59110;BME280;44895;47.438;18.978;2023-01-19T07:14:33;98471.09;;;3.43;100.00
59110;BME280;44895;47.438;18.978;2023-01-19T07:17:37;98490.63;;;3.73;100.00
59110;BME280;44895;47.438;18.978;2023-01-19T07:20:40;98501.50;;;3.63;100.00
59110;BME280;44895;47.438;18.978;2023-01-19T07:23:47;98499.53;;;3.68;100.00
59110;BME280;44895;47.438;18.978;2023-01-19T07:26:51;98501.31;;;3.54;100.00
59110;BME280;44895;47.438;18.978;2023-01-19T07:29:55;98502.41;;;3.77;100.00
59110;BME280;44895;47.438;18.978;2023-01-19T07:32:58;98502.22;;;3.68;100.00
59110;BME280;44895;47.438;18.978;2023-01-19T07:36:02;98505.53;;;3.84;100.00
59110;BME280;44895;47.438;18.978;2023-01-19T07:39:06;98501.66;;;3.71;100.00
59110;BME280;44895;47.438;18.978;2023-01-19T07:42:10;98512.63;;;3.75;100.00
59110;BME280;44895;47.438;18.978;2023-01-19T07:45:15;98507.75;;;3.77;100.00
59110;BME280;44895;47.438;18.978;2023-01-19T07:48:18;98509.97;;;3.75;100.00
59110;BME280;44895;47.438;18.978;2023-01-19T07:51:22;98514.38;;;3.85;100.00
59110;BME280;44895;47.438;18.978;2023-01-19T07:54:26;98528.22;;;3.73;100.00
59110;BME280;44895;47.438;18.978;2023-01-19T07:57:30;98511.16;;;3.64;100.00
59110;BME280;44895;47.438;18.978;2023-01-19T08:00:35;98529.06;;;3.92;100.00
59110;BME280;44895;47.438;18.978;2023-01-19T08:03:39;98521.53;;;3.70;100.00
59110;BME280;44895;47.438;18.978;2023-01-19T08:06:44;98523.25;;;3.85;100.00
59110;BME280;44895;47.438;18.978;2023-01-19T08:09:49;98504.69;;;3.65;100.00
59110;BME280;44895;47.438;18.978;2023-01-19T08:12:53;98503.88;;;3.88;100.00
59110;BME280;44895;47.438;18.978;2023-01-19T08:15:57;98505.34;;;4.00;100.00
59110;BME280;44895;47.438;18.978;2023-01-19T08:19:02;98510.25;;;3.92;100.00
59110;BME280;44895;47.438;18.978;2023-01-19T08:22:06;98496.91;;;4.06;100.00
59110;BME280;44895;47.438;18.978;2023-01-19T08:25:10;98512.75;;;3.89;100.00
59110;BME280;44895;47.438;18.978;2023-01-19T08:28:15;98503.25;;;3.97;100.00
59110;BME280;44895;47.438;18.978;2023-01-19T08:31:19;98506.66;;;4.02;100.00
59110;BME280;44895;47.438;18.978;2023-01-19T08:34:23;98522.13;;;3.91;100.00
59110;BME280;44895;47.438;18.978;2023-01-19T08:37:27;98511.31;;;3.97;100.00
59110;BME280;44895;47.438;18.978;2023-01-19T08:40:33;98517.09;;;4.04;100.00
59110;BME280;44895;47.438;18.978;2023-01-19T08:43:37;98519.22;;;4.07;100.00
59110;BME280;44895;47.438;18.978;2023-01-19T08:46:41;98528.16;;;4.02;100.00
59110;BME280;44895;47.438;18.978;2023-01-19T08:49:45;98524.16;;;4.00;100.00
59110;BME280;44895;47.438;18.978;2023-01-19T08:52:49;98521.28;;;3.91;100.00
59110;BME280;44895;47.438;18.978;2023-01-19T08:55:54;98517.81;;;3.90;100.00
59110;BME280;44895;47.438;18.978;2023-01-19T08:58:59;98514.56;;;3.94;100.00
59110;BME280;44895;47.438;18.978;2023-01-19T09:02:03;98516.63;;;4.21;100.00
59110;BME280;44895;47.438;18.978;2023-01-19T09:05:07;98512.13;;;4.16;100.00
59110;BME280;44895;47.438;18.978;2023-01-19T09:08:12;98508.03;;;4.00;100.00
59110;BME280;44895;47.438;18.978;2023-01-19T09:11:16;98510.50;;;4.15;100.00
59110;BME280;44895;47.438;18.978;2023-01-19T09:14:20;98523.44;;;4.13;100.00
59110;BME280;44895;47.438;18.978;2023-01-19T09:17:23;98538.06;;;3.83;100.00
59110;BME280;44895;47.438;18.978;2023-01-19T09:20:27;98536.97;;;4.08;100.00
59110;BME280;44895;47.438;18.978;2023-01-19T09:23:33;98529.06;;;3.92;100.00
59110;BME280;44895;47.438;18.978;2023-01-19T09:26:37;98526.69;;;4.10;100.00
59110;BME280;44895;47.438;18.978;2023-01-19T09:29:43;98531.66;;;3.79;100.00
59110;BME280;44895;47.438;18.978;2023-01-19T09:32:54;98532.03;;;3.91;100.00
59110;BME280;44895;47.438;18.978;2023-01-19T09:35:58;98538.66;;;3.99;100.00
59110;BME280;44895;47.438;18.978;2023-01-19T09:39:02;98536.38;;;4.11;100.00
59110;BME280;44895;47.438;18.978;2023-01-19T09:42:41;98523.19;;;3.90;100.00
59110;BME280;44895;47.438;18.978;2023-01-19T09:48:57;98541.41;;;3.94;100.00
59110;BME280;44895;47.438;18.978;2023-01-19T09:52:02;98546.66;;;4.04;100.00
59110;BME280;44895;47.438;18.978;2023-01-19T09:55:19;98549.94;;;3.52;100.00
59110;BME280;44895;47.438;18.978;2023-01-19T09:58:23;98543.94;;;3.61;100.00
59110;BME280;44895;47.438;18.978;2023-01-19T10:01:44;98535.47;;;3.48;100.00
59110;BME280;44895;47.438;18.978;2023-01-19T10:08:08;98556.81;;;3.34;100.00
59110;BME280;44895;47.438;18.978;2023-01-19T10:15:17;98557.66;;;3.30;100.00
59110;BME280;44895;47.438;18.978;2023-01-19T10:18:43;98546.41;;;3.28;100.00
59110;BME280;44895;47.438;18.978;2023-01-19T10:21:52;98553.03;;;3.35;100.00
59110;BME280;44895;47.438;18.978;2023-01-19T10:25:00;98558.56;;;3.20;100.00
59110;BME280;44895;47.438;18.978;2023-01-19T10:28:10;98554.59;;;3.12;100.00
59110;BME280;44895;47.438;18.978;2023-01-19T10:31:21;98553.56;;;3.08;100.00
59110;BME280;44895;47.438;18.978;2023-01-19T10:34:26;98565.16;;;2.98;100.00
59110;BME280;44895;47.438;18.978;2023-01-19T10:37:33;98569.63;;;3.13;100.00
59110;BME280;44895;47.438;18.978;2023-01-19T10:40:49;98567.81;;;3.03;100.00
59110;BME280;44895;47.438;18.978;2023-01-19T10:44:03;98580.59;;;3.17;100.00
59110;BME280;44895;47.438;18.978;2023-01-19T10:47:17;98584.66;;;3.09;100.00
59110;BME280;44895;47.438;18.978;2023-01-19T10:53:31;98582.13;;;3.23;100.00
59110;BME280;44895;47.438;18.978;2023-01-19T10:56:37;98580.69;;;3.01;100.00
59110;BME280;44895;47.438;18.978;2023-01-19T11:02:50;98576.59;;;3.09;100.00
59110;BME280;44895;47.438;18.978;2023-01-19T11:09:19;98576.72;;;2.93;100.00
59110;BME280;44895;47.438;18.978;2023-01-19T11:12:23;98562.84;;;2.86;100.00
59110;BME280;44895;47.438;18.978;2023-01-19T11:15:31;98571.72;;;2.82;100.00
59110;BME280;44895;47.438;18.978;2023-01-19T11:18:37;98568.34;;;2.66;100.00
59110;BME280;44895;47.438;18.978;2023-01-19T11:21:41;98574.28;;;2.63;100.00
59110;BME280;44895;47.438;18.978;2023-01-19T11:24:45;98568.31;;;2.71;100.00
59110;BME280;44895;47.438;18.978;2023-01-19T11:27:50;98560.47;;;2.80;100.00
59110;BME280;44895;47.438;18.978;2023-01-19T11:34:32;98578.13;;;2.46;100.00
59110;BME280;44895;47.438;18.978;2023-01-19T11:37:37;98575.31;;;3.01;100.00
59110;BME280;44895;47.438;18.978;2023-01-19T11:40:49;98579.03;;;2.71;100.00
59110;BME280;44895;47.438;18.978;2023-01-19T11:43:56;98580.06;;;2.80;100.00
59110;BME280;44895;47.438;18.978;2023-01-19T11:47:04;98580.78;;;2.91;100.00
59110;BME280;44895;47.438;18.978;2023-01-19T11:50:32;98583.06;;;2.68;100.00
59110;BME280;44895;47.438;18.978;2023-01-19T11:53:37;98596.06;;;2.90;100.00
59110;BME280;44895;47.438;18.978;2023-01-19T11:56:41;98590.75;;;2.85;100.00
59110;BME280;44895;47.438;18.978;2023-01-19T11:59:46;98595.44;;;2.64;100.00
59110;BME280;44895;47.438;18.978;2023-01-19T12:06:09;98613.41;;;3.03;100.00
59110;BME280;44895;47.438;18.978;2023-01-19T12:09:19;98609.34;;;3.11;100.00
59110;BME280;44895;47.438;18.978;2023-01-19T12:12:30;98605.91;;;3.05;100.00
59110;BME280;44895;47.438;18.978;2023-01-19T12:15:39;98615.84;;;3.00;100.00
59110;BME280;44895;47.438;18.978;2023-01-19T12:18:48;98618.88;;;2.88;100.00
59110;BME280;44895;47.438;18.978;2023-01-19T12:21:55;98628.69;;;2.58;100.00
59110;BME280;44895;47.438;18.978;2023-01-19T12:25:13;98640.69;;;2.71;100.00
59110;BME280;44895;47.438;18.978;2023-01-19T12:28:22;98638.81;;;2.76;100.00
59110;BME280;44895;47.438;18.978;2023-01-19T12:31:29;98650.03;;;2.78;100.00
59110;BME280;44895;47.438;18.978;2023-01-19T12:34:41;98649.06;;;2.59;100.00
59110;BME280;44895;47.438;18.978;2023-01-19T12:37:45;98658.63;;;2.81;100.00
59110;BME280;44895;47.438;18.978;2023-01-19T12:40:49;98650.78;;;2.89;100.00
59110;BME280;44895;47.438;18.978;2023-01-19T12:47:18;98661.84;;;2.77;100.00
59110;BME280;44895;47.438;18.978;2023-01-19T12:50:30;98669.53;;;2.94;100.00
59110;BME280;44895;47.438;18.978;2023-01-19T12:53:34;98675.00;;;2.79;100.00
59110;BME280;44895;47.438;18.978;2023-01-19T12:56:38;98673.53;;;2.97;100.00
59110;BME280;44895;47.438;18.978;2023-01-19T12:59:42;98674.22;;;2.68;100.00
59110;BME280;44895;47.438;18.978;2023-01-19T13:02:48;98689.41;;;2.88;100.00
59110;BME280;44895;47.438;18.978;2023-01-19T13:05:53;98695.84;;;2.87;100.00
59110;BME280;44895;47.438;18.978;2023-01-19T13:08:59;98711.44;;;2.85;100.00
59110;BME280;44895;47.438;18.978;2023-01-19T13:12:29;98709.19;;;3.03;100.00
59110;BME280;44895;47.438;18.978;2023-01-19T13:15:34;98713.13;;;3.16;100.00
59110;BME280;44895;47.438;18.978;2023-01-19T13:18:40;98724.16;;;3.09;100.00
59110;BME280;44895;47.438;18.978;2023-01-19T13:21:46;98727.72;;;2.99;100.00
59110;BME280;44895;47.438;18.978;2023-01-19T13:25:05;98736.91;;;2.83;100.00
59110;BME280;44895;47.438;18.978;2023-01-19T13:28:09;98742.47;;;3.02;100.00
59110;BME280;44895;47.438;18.978;2023-01-19T13:31:16;98736.63;;;2.84;100.00
59110;BME280;44895;47.438;18.978;2023-01-19T13:34:23;98755.94;;;2.86;100.00
59110;BME280;44895;47.438;18.978;2023-01-19T13:37:34;98764.84;;;2.76;100.00
59110;BME280;44895;47.438;18.978;2023-01-19T13:40:39;98765.38;;;2.68;100.00
59110;BME280;44895;47.438;18.978;2023-01-19T13:43:43;98776.38;;;2.67;100.00
59110;BME280;44895;47.438;18.978;2023-01-19T13:46:49;98785.69;;;2.90;100.00
59110;BME280;44895;47.438;18.978;2023-01-19T13:49:55;98785.22;;;2.77;100.00
59110;BME280;44895;47.438;18.978;2023-01-19T13:53:00;98788.69;;;2.78;100.00
59110;BME280;44895;47.438;18.978;2023-01-19T13:59:12;98790.81;;;2.81;100.00
59110;BME280;44895;47.438;18.978;2023-01-19T14:02:16;98787.28;;;2.91;100.00
59110;BME280;44895;47.438;18.978;2023-01-19T14:08:30;98772.09;;;2.66;100.00
59110;BME280;44895;47.438;18.978;2023-01-19T14:11:35;98772.66;;;2.63;100.00
59110;BME280;44895;47.438;18.978;2023-01-19T14:14:41;98784.22;;;2.48;100.00
59110;BME280;44895;47.438;18.978;2023-01-19T14:21:14;98784.75;;;2.44;100.00
59110;BME280;44895;47.438;18.978;2023-01-19T14:24:18;98783.91;;;2.54;100.00
59110;BME280;44895;47.438;18.978;2023-01-19T14:27:22;98787.69;;;2.48;100.00
59110;BME280;44895;47.438;18.978;2023-01-19T14:30:27;98798.94;;;2.50;100.00
59110;BME280;44895;47.438;18.978;2023-01-19T14:33:41;98803.97;;;2.67;100.00
59110;BME280;44895;47.438;18.978;2023-01-19T14:36:49;98800.56;;;2.51;100.00
59110;BME280;44895;47.438;18.978;2023-01-19T14:39:55;98808.81;;;2.70;100.00
59110;BME280;44895;47.438;18.978;2023-01-19T14:43:00;98813.13;;;2.71;100.00
59110;BME280;44895;47.438;18.978;2023-01-19T14:46:13;98820.09;;;2.62;100.00
59110;BME280;44895;47.438;18.978;2023-01-19T14:49:45;98826.25;;;2.68;100.00
59110;BME280;44895;47.438;18.978;2023-01-19T14:52:57;98841.56;;;2.52;100.00
59110;BME280;44895;47.438;18.978;2023-01-19T14:56:03;98857.63;;;2.57;100.00
59110;BME280;44895;47.438;18.978;2023-01-19T14:59:09;98883.94;;;2.50;100.00
59110;BME280;44895;47.438;18.978;2023-01-19T15:02:16;98889.53;;;2.38;100.00
59110;BME280;44895;47.438;18.978;2023-01-19T15:05:22;98895.44;;;2.40;100.00
59110;BME280;44895;47.438;18.978;2023-01-19T15:08:30;98880.16;;;2.45;100.00
59110;BME280;44895;47.438;18.978;2023-01-19T15:11:36;98861.13;;;2.37;100.00
59110;BME280;44895;47.438;18.978;2023-01-19T15:14:39;98858.47;;;2.32;100.00
59110;BME280;44895;47.438;18.978;2023-01-19T15:17:43;98865.41;;;2.38;100.00
59110;BME280;44895;47.438;18.978;2023-01-19T15:20:47;98861.69;;;2.34;100.00
59110;BME280;44895;47.438;18.978;2023-01-19T15:23:51;98857.66;;;2.16;100.00
59110;BME280;44895;47.438;18.978;2023-01-19T15:26:56;98878.81;;;2.22;100.00
59110;BME280;44895;47.438;18.978;2023-01-19T15:30:15;98887.94;;;2.16;100.00
59110;BME280;44895;47.438;18.978;2023-01-19T15:33:21;98894.63;;;2.34;100.00
59110;BME280;44895;47.438;18.978;2023-01-19T15:36:25;98899.47;;;2.37;100.00
59110;BME280;44895;47.438;18.978;2023-01-19T15:39:29;98898.38;;;2.23;100.00
59110;BME280;44895;47.438;18.978;2023-01-19T15:42:32;98895.44;;;2.24;100.00
59110;BME280;44895;47.438;18.978;2023-01-19T15:45:37;98898.66;;;2.26;100.00
59110;BME280;44895;47.438;18.978;2023-01-19T15:48:41;98908.31;;;2.22;100.00
59110;BME280;44895;47.438;18.978;2023-01-19T15:51:45;98910.72;;;2.24;100.00
59110;BME280;44895;47.438;18.978;2023-01-19T15:54:48;98929.47;;;2.24;100.00
59110;BME280;44895;47.438;18.978;2023-01-19T15:57:52;98926.50;;;2.25;100.00
59110;BME280;44895;47.438;18.978;2023-01-19T16:00:57;98941.00;;;2.30;100.00
59110;BME280;44895;47.438;18.978;2023-01-19T16:04:03;98929.72;;;2.22;100.00
59110;BME280;44895;47.438;18.978;2023-01-19T16:07:07;98943.13;;;2.27;100.00
59110;BME280;44895;47.438;18.978;2023-01-19T16:10:11;98950.91;;;2.34;100.00
59110;BME280;44895;47.438;18.978;2023-01-19T16:13:15;98963.25;;;2.30;100.00
59110;BME280;44895;47.438;18.978;2023-01-19T16:16:22;98975.00;;;2.24;100.00
59110;BME280;44895;47.438;18.978;2023-01-19T16:19:26;98979.03;;;2.16;100.00
59110;BME280;44895;47.438;18.978;2023-01-19T16:22:30;98992.69;;;2.25;100.00
59110;BME280;44895;47.438;18.978;2023-01-19T16:25:33;98994.59;;;2.40;100.00
59110;BME280;44895;47.438;18.978;2023-01-19T16:28:38;98992.16;;;2.28;100.00
59110;BME280;44895;47.438;18.978;2023-01-19T16:31:42;99008.00;;;2.35;100.00
59110;BME280;44895;47.438;18.978;2023-01-19T16:34:48;99020.53;;;2.14;100.00
59110;BME280;44895;47.438;18.978;2023-01-19T16:37:51;99031.59;;;2.38;100.00
59110;BME280;44895;47.438;18.978;2023-01-19T16:40:55;99033.19;;;2.34;100.00
59110;BME280;44895;47.438;18.978;2023-01-19T16:43:59;99029.13;;;2.16;100.00
59110;BME280;44895;47.438;18.978;2023-01-19T16:47:03;99038.53;;;2.23;100.00
59110;BME280;44895;47.438;18.978;2023-01-19T16:50:09;99052.97;;;2.22;100.00
59110;BME280;44895;47.438;18.978;2023-01-19T16:53:13;99058.31;;;2.17;100.00
59110;BME280;44895;47.438;18.978;2023-01-19T16:56:17;99060.78;;;2.39;100.00
59110;BME280;44895;47.438;18.978;2023-01-19T16:59:21;99037.97;;;2.21;100.00